sensor_id;sensor_type;location;lat;lon;timestamp;temperature;humidity
31639;DHT22;18248;51.522;7.020;2023-02-04T00:01:13;8.40;99.90
31639;DHT22;18248;51.522;7.020;2023-02-04T00:04:12;8.40;99.90
31639;DHT22;18248;51.522;7.020;2023-02-04T00:07:10;8.30;99.90
31639;DHT22;18248;51.522;7.020;2023-02-04T00:10:09;8.30;99.90
31639;DHT22;18248;51.522;7.020;2023-02-04T00:13:08;8.30;99.90
31639;DHT22;18248;51.522;7.020;2023-02-04T00:16:06;8.20;99.90
31639;DHT22;18248;51.522;7.020;2023-02-04T00:19:05;8.20;99.90
31639;DHT22;18248;51.522;7.020;2023-02-04T00:22:03;8.20;99.90
31639;DHT22;18248;51.522;7.020;2023-02-04T00:25:02;8.20;99.90
31639;DHT22;18248;51.522;7.020;2023-02-04T00:28:01;8.20;99.90
31639;DHT22;18248;51.522;7.020;2023-02-04T00:30:59;8.20;99.90
31639;DHT22;18248;51.522;7.020;2023-02-04T00:33:58;8.20;99.90
31639;DHT22;18248;51.522;7.020;2023-02-04T00:36:57;8.20;99.90
31639;DHT22;18248;51.522;7.020;2023-02-04T00:39:55;8.20;99.90
31639;DHT22;18248;51.522;7.020;2023-02-04T00:42:54;8.20;99.90
31639;DHT22;18248;51.522;7.020;2023-02-04T00:45:52;8.20;99.90
31639;DHT22;18248;51.522;7.020;2023-02-04T00:48:51;8.20;99.90
31639;DHT22;18248;51.522;7.020;2023-02-04T00:51:49;8.20;99.90
31639;DHT22;18248;51.522;7.020;2023-02-04T00:54:50;8.20;99.90
31639;DHT22;18248;51.522;7.020;2023-02-04T00:57:48;8.10;99.90
31639;DHT22;18248;51.522;7.020;2023-02-04T01:00:48;8.20;99.90
31639;DHT22;18248;51.522;7.020;2023-02-04T01:03:47;8.20;99.90
31639;DHT22;18248;51.522;7.020;2023-02-04T01:06:45;8.20;99.90
31639;DHT22;18248;51.522;7.020;2023-02-04T01:09:44;8.20;99.90
31639;DHT22;18248;51.522;7.020;2023-02-04T01:12:43;8.20;99.90
31639;DHT22;18248;51.522;7.020;2023-02-04T01:15:41;8.20;99.90
31639;DHT22;18248;51.522;7.020;2023-02-04T01:18:40;8.20;99.90
31639;DHT22;18248;51.522;7.020;2023-02-04T01:21:39;8.20;99.90
31639;DHT22;18248;51.522;7.020;2023-02-04T01:24:38;8.20;99.90
31639;DHT22;18248;51.522;7.020;2023-02-04T01:27:36;8.20;99.90
31639;DHT22;18248;51.522;7.020;2023-02-04T01:30:35;8.20;99.90
31639;DHT22;18248;51.522;7.020;2023-02-04T01:33:33;8.20;99.90
31639;DHT22;18248;51.522;7.020;2023-02-04T01:36:32;8.20;99.90
31639;DHT22;18248;51.522;7.020;2023-02-04T01:39:31;8.20;99.90
31639;DHT22;18248;51.522;7.020;2023-02-04T01:42:31;8.20;99.90
31639;DHT22;18248;51.522;7.020;2023-02-04T01:45:29;8.20;99.90
31639;DHT22;18248;51.522;7.020;2023-02-04T01:48:31;8.20;99.90
31639;DHT22;18248;51.522;7.020;2023-02-04T01:51:30;8.20;99.90
31639;DHT22;18248;51.522;7.020;2023-02-04T01:54:30;8.20;99.90
31639;DHT22;18248;51.522;7.020;2023-02-04T01:57:29;8.30;99.90
31639;DHT22;18248;51.522;7.020;2023-02-04T02:00:31;8.20;99.90
31639;DHT22;18248;51.522;7.020;2023-02-04T02:03:30;8.20;99.90
31639;DHT22;18248;51.522;7.020;2023-02-04T02:06:29;8.30;99.90
31639;DHT22;18248;51.522;7.020;2023-02-04T02:09:28;8.30;99.90
31639;DHT22;18248;51.522;7.020;2023-02-04T02:12:28;8.30;99.90
31639;DHT22;18248;51.522;7.020;2023-02-04T02:15:26;8.30;99.90
31639;DHT22;18248;51.522;7.020;2023-02-04T02:18:25;8.30;99.90
31639;DHT22;18248;51.522;7.020;2023-02-04T02:21:37;8.30;99.90
31639;DHT22;18248;51.522;7.020;2023-02-04T02:24:36;8.30;99.90
31639;DHT22;18248;51.522;7.020;2023-02-04T02:27:35;8.30;99.90
31639;DHT22;18248;51.522;7.020;2023-02-04T02:30:33;8.30;99.90
31639;DHT22;18248;51.522;7.020;2023-02-04T02:33:32;8.30;99.90
31639;DHT22;18248;51.522;7.020;2023-02-04T02:36:31;8.30;99.90
31639;DHT22;18248;51.522;7.020;2023-02-04T02:39:29;8.30;99.90
31639;DHT22;18248;51.522;7.020;2023-02-04T02:42:28;8.30;99.90
31639;DHT22;18248;51.522;7.020;2023-02-04T02:45:29;8.30;99.90
31639;DHT22;18248;51.522;7.020;2023-02-04T02:48:28;8.30;99.90
31639;DHT22;18248;51.522;7.020;2023-02-04T02:51:28;8.30;99.90
31639;DHT22;18248;51.522;7.020;2023-02-04T02:54:31;8.30;99.90
31639;DHT22;18248;51.522;7.020;2023-02-04T02:57:30;8.30;99.90
31639;DHT22;18248;51.522;7.020;2023-02-04T03:00:29;8.30;99.90
31639;DHT22;18248;51.522;7.020;2023-02-04T03:03:36;8.30;99.90
31639;DHT22;18248;51.522;7.020;2023-02-04T03:06:36;8.30;99.90
31639;DHT22;18248;51.522;7.020;2023-02-04T03:09:35;8.30;99.90
31639;DHT22;18248;51.522;7.020;2023-02-04T03:12:33;8.30;99.90
31639;DHT22;18248;51.522;7.020;2023-02-04T03:15:32;8.30;99.90
31639;DHT22;18248;51.522;7.020;2023-02-04T03:18:31;8.30;99.90
31639;DHT22;18248;51.522;7.020;2023-02-04T03:21:30;8.30;99.90
31639;DHT22;18248;51.522;7.020;2023-02-04T03:24:29;8.20;99.90
31639;DHT22;18248;51.522;7.020;2023-02-04T03:27:29;8.20;99.90
31639;DHT22;18248;51.522;7.020;2023-02-04T03:30:29;8.20;99.90
31639;DHT22;18248;51.522;7.020;2023-02-04T03:33:28;8.20;99.90
31639;DHT22;18248;51.522;7.020;2023-02-04T03:36:29;8.20;99.90
31639;DHT22;18248;51.522;7.020;2023-02-04T03:39:27;8.20;99.90
31639;DHT22;18248;51.522;7.020;2023-02-04T03:42:26;8.20;99.90
31639;DHT22;18248;51.522;7.020;2023-02-04T03:45:24;8.20;99.90
31639;DHT22;18248;51.522;7.020;2023-02-04T03:48:23;8.20;99.90
31639;DHT22;18248;51.522;7.020;2023-02-04T03:51:23;8.20;99.90
31639;DHT22;18248;51.522;7.020;2023-02-04T03:54:22;8.20;99.90
31639;DHT22;18248;51.522;7.020;2023-02-04T03:57:20;8.20;99.90
31639;DHT22;18248;51.522;7.020;2023-02-04T04:00:19;8.20;99.90
31639;DHT22;18248;51.522;7.020;2023-02-04T04:03:19;8.20;99.90
31639;DHT22;18248;51.522;7.020;2023-02-04T04:06:17;8.20;99.90
31639;DHT22;18248;51.522;7.020;2023-02-04T04:09:16;8.20;99.90
31639;DHT22;18248;51.522;7.020;2023-02-04T04:12:14;8.20;99.90
31639;DHT22;18248;51.522;7.020;2023-02-04T04:15:13;8.10;99.90
31639;DHT22;18248;51.522;7.020;2023-02-04T04:18:11;8.10;99.90
31639;DHT22;18248;51.522;7.020;2023-02-04T04:21:10;8.10;99.90
31639;DHT22;18248;51.522;7.020;2023-02-04T04:24:08;8.10;99.90
31639;DHT22;18248;51.522;7.020;2023-02-04T04:27:07;8.10;99.90
31639;DHT22;18248;51.522;7.020;2023-02-04T04:30:06;8.10;99.90
31639;DHT22;18248;51.522;7.020;2023-02-04T04:33:05;8.10;99.90
31639;DHT22;18248;51.522;7.020;2023-02-04T04:36:04;8.10;99.90
31639;DHT22;18248;51.522;7.020;2023-02-04T04:39:04;8.10;99.90
31639;DHT22;18248;51.522;7.020;2023-02-04T04:42:03;8.10;99.90
31639;DHT22;18248;51.522;7.020;2023-02-04T04:45:05;8.10;99.90
31639;DHT22;18248;51.522;7.020;2023-02-04T04:48:04;8.10;99.90
31639;DHT22;18248;51.522;7.020;2023-02-04T04:51:02;8.10;99.90
31639;DHT22;18248;51.522;7.020;2023-02-04T04:54:01;8.10;99.90
31639;DHT22;18248;51.522;7.020;2023-02-04T04:57:00;8.10;99.90
31639;DHT22;18248;51.522;7.020;2023-02-04T04:59:58;8.10;99.90
31639;DHT22;18248;51.522;7.020;2023-02-04T05:02:59;8.10;99.90
31639;DHT22;18248;51.522;7.020;2023-02-04T05:05:57;8.10;99.90
31639;DHT22;18248;51.522;7.020;2023-02-04T05:08:56;8.10;99.90
31639;DHT22;18248;51.522;7.020;2023-02-04T05:11:55;8.10;99.90
31639;DHT22;18248;51.522;7.020;2023-02-04T05:14:53;8.10;99.90
31639;DHT22;18248;51.522;7.020;2023-02-04T05:17:53;8.10;99.90
31639;DHT22;18248;51.522;7.020;2023-02-04T05:20:51;8.00;99.90
31639;DHT22;18248;51.522;7.020;2023-02-04T05:23:50;8.00;99.90
31639;DHT22;18248;51.522;7.020;2023-02-04T05:26:49;8.00;99.90
31639;DHT22;18248;51.522;7.020;2023-02-04T05:29:47;8.00;99.90
31639;DHT22;18248;51.522;7.020;2023-02-04T05:32:47;8.10;99.90
31639;DHT22;18248;51.522;7.020;2023-02-04T05:35:46;8.10;99.90
31639;DHT22;18248;51.522;7.020;2023-02-04T05:38:45;8.00;99.90
31639;DHT22;18248;51.522;7.020;2023-02-04T05:41:45;8.00;99.90
31639;DHT22;18248;51.522;7.020;2023-02-04T05:44:44;8.10;99.90
31639;DHT22;18248;51.522;7.020;2023-02-04T05:47:44;8.10;99.90
31639;DHT22;18248;51.522;7.020;2023-02-04T05:50:43;8.10;99.90
31639;DHT22;18248;51.522;7.020;2023-02-04T05:53:41;8.10;99.90
31639;DHT22;18248;51.522;7.020;2023-02-04T05:56:41;8.10;99.90
31639;DHT22;18248;51.522;7.020;2023-02-04T05:59:40;8.10;99.90
31639;DHT22;18248;51.522;7.020;2023-02-04T06:02:38;8.10;99.90
31639;DHT22;18248;51.522;7.020;2023-02-04T06:05:38;8.10;99.90
31639;DHT22;18248;51.522;7.020;2023-02-04T06:08:37;8.10;99.90
31639;DHT22;18248;51.522;7.020;2023-02-04T06:11:36;8.10;99.90
31639;DHT22;18248;51.522;7.020;2023-02-04T06:14:35;8.10;99.90
31639;DHT22;18248;51.522;7.020;2023-02-04T06:17:33;8.10;99.90
31639;DHT22;18248;51.522;7.020;2023-02-04T06:20:32;8.00;99.90
31639;DHT22;18248;51.522;7.020;2023-02-04T06:23:31;8.10;99.90
31639;DHT22;18248;51.522;7.020;2023-02-04T06:26:31;8.10;99.90
31639;DHT22;18248;51.522;7.020;2023-02-04T06:29:29;8.10;99.90
31639;DHT22;18248;51.522;7.020;2023-02-04T06:32:28;8.10;99.90
31639;DHT22;18248;51.522;7.020;2023-02-04T06:35:27;8.10;99.90
31639;DHT22;18248;51.522;7.020;2023-02-04T06:38:25;8.10;99.90
31639;DHT22;18248;51.522;7.020;2023-02-04T06:41:24;8.10;99.90
31639;DHT22;18248;51.522;7.020;2023-02-04T06:44:22;8.10;99.90
31639;DHT22;18248;51.522;7.020;2023-02-04T06:47:21;8.00;99.90
31639;DHT22;18248;51.522;7.020;2023-02-04T06:50:19;8.10;99.90
31639;DHT22;18248;51.522;7.020;2023-02-04T06:53:18;8.10;99.90
31639;DHT22;18248;51.522;7.020;2023-02-04T06:56:16;8.10;99.90
31639;DHT22;18248;51.522;7.020;2023-02-04T06:59:15;8.00;99.90
31639;DHT22;18248;51.522;7.020;2023-02-04T07:02:13;8.00;99.90
31639;DHT22;18248;51.522;7.020;2023-02-04T07:05:12;8.00;99.90
31639;DHT22;18248;51.522;7.020;2023-02-04T07:08:11;8.00;99.90
31639;DHT22;18248;51.522;7.020;2023-02-04T07:11:09;8.00;99.90
31639;DHT22;18248;51.522;7.020;2023-02-04T07:14:08;8.00;99.90
31639;DHT22;18248;51.522;7.020;2023-02-04T07:17:07;8.00;99.90
31639;DHT22;18248;51.522;7.020;2023-02-04T07:20:06;8.00;99.90
31639;DHT22;18248;51.522;7.020;2023-02-04T07:23:05;8.00;99.90
31639;DHT22;18248;51.522;7.020;2023-02-04T07:26:03;8.00;99.90
31639;DHT22;18248;51.522;7.020;2023-02-04T07:29:02;8.00;99.90
31639;DHT22;18248;51.522;7.020;2023-02-04T07:32:02;8.00;99.90
31639;DHT22;18248;51.522;7.020;2023-02-04T07:35:00;8.00;99.90
31639;DHT22;18248;51.522;7.020;2023-02-04T07:37:59;8.00;99.90
31639;DHT22;18248;51.522;7.020;2023-02-04T07:40:58;8.00;99.90
31639;DHT22;18248;51.522;7.020;2023-02-04T07:43:56;8.00;99.90
31639;DHT22;18248;51.522;7.020;2023-02-04T07:46:55;8.00;99.90
31639;DHT22;18248;51.522;7.020;2023-02-04T07:49:54;8.00;99.90
31639;DHT22;18248;51.522;7.020;2023-02-04T07:52:55;8.00;99.90
31639;DHT22;18248;51.522;7.020;2023-02-04T07:55:53;8.00;99.90
31639;DHT22;18248;51.522;7.020;2023-02-04T07:58:52;8.00;99.90
31639;DHT22;18248;51.522;7.020;2023-02-04T08:01:51;8.10;99.90
31639;DHT22;18248;51.522;7.020;2023-02-04T08:04:50;8.10;99.90
31639;DHT22;18248;51.522;7.020;2023-02-04T08:07:50;8.10;99.90
31639;DHT22;18248;51.522;7.020;2023-02-04T08:10:49;8.10;99.90
31639;DHT22;18248;51.522;7.020;2023-02-04T08:13:47;8.20;99.90
31639;DHT22;18248;51.522;7.020;2023-02-04T08:16:46;8.20;99.90
31639;DHT22;18248;51.522;7.020;2023-02-04T08:19:44;8.20;99.90
31639;DHT22;18248;51.522;7.020;2023-02-04T08:22:43;8.30;99.90
31639;DHT22;18248;51.522;7.020;2023-02-04T08:25:42;8.30;99.90
31639;DHT22;18248;51.522;7.020;2023-02-04T08:28:42;8.40;99.90
31639;DHT22;18248;51.522;7.020;2023-02-04T08:31:41;8.40;99.90
31639;DHT22;18248;51.522;7.020;2023-02-04T08:34:39;8.50;99.90
31639;DHT22;18248;51.522;7.020;2023-02-04T08:37:38;8.50;99.90
31639;DHT22;18248;51.522;7.020;2023-02-04T08:40:38;8.60;99.90
31639;DHT22;18248;51.522;7.020;2023-02-04T08:43:36;8.60;99.90
31639;DHT22;18248;51.522;7.020;2023-02-04T08:46:35;8.60;99.90
31639;DHT22;18248;51.522;7.020;2023-02-04T08:49:33;8.70;99.90
31639;DHT22;18248;51.522;7.020;2023-02-04T08:52:32;8.70;99.90
31639;DHT22;18248;51.522;7.020;2023-02-04T08:55:30;8.70;99.90
31639;DHT22;18248;51.522;7.020;2023-02-04T08:58:29;8.70;99.90
31639;DHT22;18248;51.522;7.020;2023-02-04T09:01:27;8.70;99.90
31639;DHT22;18248;51.522;7.020;2023-02-04T09:04:26;8.80;99.90
31639;DHT22;18248;51.522;7.020;2023-02-04T09:07:25;8.80;99.90
31639;DHT22;18248;51.522;7.020;2023-02-04T09:10:24;8.80;99.90
31639;DHT22;18248;51.522;7.020;2023-02-04T09:13:23;8.80;99.90
31639;DHT22;18248;51.522;7.020;2023-02-04T09:16:22;8.90;99.90
31639;DHT22;18248;51.522;7.020;2023-02-04T09:19:20;8.90;99.90
31639;DHT22;18248;51.522;7.020;2023-02-04T09:22:22;8.90;99.90
31639;DHT22;18248;51.522;7.020;2023-02-04T09:25:21;9.00;99.90
31639;DHT22;18248;51.522;7.020;2023-02-04T09:28:19;9.10;99.90
31639;DHT22;18248;51.522;7.020;2023-02-04T09:31:18;9.10;99.90
31639;DHT22;18248;51.522;7.020;2023-02-04T09:34:16;9.20;99.90
31639;DHT22;18248;51.522;7.020;2023-02-04T09:37:15;9.20;99.90
31639;DHT22;18248;51.522;7.020;2023-02-04T09:40:16;9.30;99.90
31639;DHT22;18248;51.522;7.020;2023-02-04T09:43:21;9.30;99.90
31639;DHT22;18248;51.522;7.020;2023-02-04T09:46:23;9.30;99.90
31639;DHT22;18248;51.522;7.020;2023-02-04T09:49:26;9.30;99.90
31639;DHT22;18248;51.522;7.020;2023-02-04T09:52:26;9.40;99.90
31639;DHT22;18248;51.522;7.020;2023-02-04T09:55:31;9.40;99.90
31639;DHT22;18248;51.522;7.020;2023-02-04T09:58:32;9.50;99.90
31639;DHT22;18248;51.522;7.020;2023-02-04T10:01:31;9.60;99.90
31639;DHT22;18248;51.522;7.020;2023-02-04T10:04:29;9.60;99.90
31639;DHT22;18248;51.522;7.020;2023-02-04T10:07:28;9.70;99.90
31639;DHT22;18248;51.522;7.020;2023-02-04T10:10:30;9.70;99.90
31639;DHT22;18248;51.522;7.020;2023-02-04T10:13:35;9.70;99.90
31639;DHT22;18248;51.522;7.020;2023-02-04T10:16:35;9.70;99.90
31639;DHT22;18248;51.522;7.020;2023-02-04T10:19:39;9.70;99.90
31639;DHT22;18248;51.522;7.020;2023-02-04T10:22:38;9.80;99.90
31639;DHT22;18248;51.522;7.020;2023-02-04T10:25:37;9.80;99.90
31639;DHT22;18248;51.522;7.020;2023-02-04T10:28:36;9.80;99.90
31639;DHT22;18248;51.522;7.020;2023-02-04T10:31:37;9.90;99.90
31639;DHT22;18248;51.522;7.020;2023-02-04T10:34:39;9.90;99.90
31639;DHT22;18248;51.522;7.020;2023-02-04T10:37:37;10.00;99.90
31639;DHT22;18248;51.522;7.020;2023-02-04T10:40:36;10.00;99.90
31639;DHT22;18248;51.522;7.020;2023-02-04T10:43:34;10.10;99.90
31639;DHT22;18248;51.522;7.020;2023-02-04T10:46:33;10.10;99.90
31639;DHT22;18248;51.522;7.020;2023-02-04T10:49:32;10.20;99.90
31639;DHT22;18248;51.522;7.020;2023-02-04T10:52:42;10.30;99.90
31639;DHT22;18248;51.522;7.020;2023-02-04T10:55:44;10.30;99.90
31639;DHT22;18248;51.522;7.020;2023-02-04T10:58:44;10.40;99.90
31639;DHT22;18248;51.522;7.020;2023-02-04T11:01:43;10.40;99.90
31639;DHT22;18248;51.522;7.020;2023-02-04T11:04:42;10.40;99.90
31639;DHT22;18248;51.522;7.020;2023-02-04T11:07:40;10.50;99.90
31639;DHT22;18248;51.522;7.020;2023-02-04T11:10:39;10.50;99.90
31639;DHT22;18248;51.522;7.020;2023-02-04T11:16:48;10.40;99.90
31639;DHT22;18248;51.522;7.020;2023-02-04T11:19:46;10.40;99.90
31639;DHT22;18248;51.522;7.020;2023-02-04T11:22:47;10.50;99.90
31639;DHT22;18248;51.522;7.020;2023-02-04T11:26:33;10.50;99.90
31639;DHT22;18248;51.522;7.020;2023-02-04T11:29:36;10.60;99.90
31639;DHT22;18248;51.522;7.020;2023-02-04T11:32:37;10.60;99.90
31639;DHT22;18248;51.522;7.020;2023-02-04T11:35:36;10.60;99.90
31639;DHT22;18248;51.522;7.020;2023-02-04T11:38:34;10.70;99.90
31639;DHT22;18248;51.522;7.020;2023-02-04T11:41:33;10.70;99.90
31639;DHT22;18248;51.522;7.020;2023-02-04T11:44:32;10.80;99.90
31639;DHT22;18248;51.522;7.020;2023-02-04T11:47:35;10.80;99.90
31639;DHT22;18248;51.522;7.020;2023-02-04T11:50:34;10.80;99.90
31639;DHT22;18248;51.522;7.020;2023-02-04T11:53:35;10.80;99.90
31639;DHT22;18248;51.522;7.020;2023-02-04T11:56:34;10.90;99.90
31639;DHT22;18248;51.522;7.020;2023-02-04T11:59:32;10.90;99.90
31639;DHT22;18248;51.522;7.020;2023-02-04T12:02:42;10.90;99.90
31639;DHT22;18248;51.522;7.020;2023-02-04T12:05:43;10.90;99.90
31639;DHT22;18248;51.522;7.020;2023-02-04T12:08:42;10.90;99.90
31639;DHT22;18248;51.522;7.020;2023-02-04T12:12:00;10.90;99.90
31639;DHT22;18248;51.522;7.020;2023-02-04T12:15:12;10.90;99.90
31639;DHT22;18248;51.522;7.020;2023-02-04T12:18:12;11.00;99.90
31639;DHT22;18248;51.522;7.020;2023-02-04T12:21:12;11.00;99.90
31639;DHT22;18248;51.522;7.020;2023-02-04T12:24:11;10.90;99.90
31639;DHT22;18248;51.522;7.020;2023-02-04T12:27:10;10.90;99.90
31639;DHT22;18248;51.522;7.020;2023-02-04T12:30:09;10.90;99.90
31639;DHT22;18248;51.522;7.020;2023-02-04T12:33:08;10.90;99.90
31639;DHT22;18248;51.522;7.020;2023-02-04T12:36:06;10.90;99.90
31639;DHT22;18248;51.522;7.020;2023-02-04T12:39:05;11.00;99.90
31639;DHT22;18248;51.522;7.020;2023-02-04T12:42:04;11.00;99.90
31639;DHT22;18248;51.522;7.020;2023-02-04T12:45:02;11.00;99.90
31639;DHT22;18248;51.522;7.020;2023-02-04T12:48:01;11.10;99.90
31639;DHT22;18248;51.522;7.020;2023-02-04T12:50:59;11.10;99.90
31639;DHT22;18248;51.522;7.020;2023-02-04T12:53:58;11.20;99.90
31639;DHT22;18248;51.522;7.020;2023-02-04T12:56:58;11.20;99.90
31639;DHT22;18248;51.522;7.020;2023-02-04T12:59:56;11.10;99.90
31639;DHT22;18248;51.522;7.020;2023-02-04T13:02:56;11.20;99.90
31639;DHT22;18248;51.522;7.020;2023-02-04T13:05:58;11.20;99.90
31639;DHT22;18248;51.522;7.020;2023-02-04T13:08:56;11.20;99.90
31639;DHT22;18248;51.522;7.020;2023-02-04T13:11:55;11.10;99.90
31639;DHT22;18248;51.522;7.020;2023-02-04T13:14:53;11.10;99.90
31639;DHT22;18248;51.522;7.020;2023-02-04T13:17:52;11.10;99.90
31639;DHT22;18248;51.522;7.020;2023-02-04T13:20:50;11.10;99.90
31639;DHT22;18248;51.522;7.020;2023-02-04T13:23:49;11.10;99.90
31639;DHT22;18248;51.522;7.020;2023-02-04T13:26:48;11.10;99.90
31639;DHT22;18248;51.522;7.020;2023-02-04T13:29:46;11.00;99.90
31639;DHT22;18248;51.522;7.020;2023-02-04T13:32:45;11.00;99.90
31639;DHT22;18248;51.522;7.020;2023-02-04T13:35:43;11.00;99.90
31639;DHT22;18248;51.522;7.020;2023-02-04T13:38:42;11.00;99.90
31639;DHT22;18248;51.522;7.020;2023-02-04T13:41:41;10.90;99.90
31639;DHT22;18248;51.522;7.020;2023-02-04T13:44:39;10.90;99.90
31639;DHT22;18248;51.522;7.020;2023-02-04T13:47:38;10.90;99.90
31639;DHT22;18248;51.522;7.020;2023-02-04T13:50:36;10.90;99.90
31639;DHT22;18248;51.522;7.020;2023-02-04T13:53:35;10.90;99.90
31639;DHT22;18248;51.522;7.020;2023-02-04T13:56:34;10.90;99.90
31639;DHT22;18248;51.522;7.020;2023-02-04T13:59:32;10.90;99.90
31639;DHT22;18248;51.522;7.020;2023-02-04T14:02:32;10.90;99.90
31639;DHT22;18248;51.522;7.020;2023-02-04T14:05:31;10.90;99.90
31639;DHT22;18248;51.522;7.020;2023-02-04T14:08:30;10.90;99.90
31639;DHT22;18248;51.522;7.020;2023-02-04T14:11:29;10.90;99.90
31639;DHT22;18248;51.522;7.020;2023-02-04T14:14:27;10.90;99.90
31639;DHT22;18248;51.522;7.020;2023-02-04T14:17:26;10.90;99.90
31639;DHT22;18248;51.522;7.020;2023-02-04T14:20:24;10.80;99.90
31639;DHT22;18248;51.522;7.020;2023-02-04T14:23:23;10.80;99.90
31639;DHT22;18248;51.522;7.020;2023-02-04T14:26:22;10.70;99.90
31639;DHT22;18248;51.522;7.020;2023-02-04T14:29:20;10.70;99.90
31639;DHT22;18248;51.522;7.020;2023-02-04T14:32:19;10.70;99.90
31639;DHT22;18248;51.522;7.020;2023-02-04T14:35:18;10.70;99.90
31639;DHT22;18248;51.522;7.020;2023-02-04T14:38:17;10.70;99.90
31639;DHT22;18248;51.522;7.020;2023-02-04T14:41:16;10.70;99.90
31639;DHT22;18248;51.522;7.020;2023-02-04T14:44:18;10.70;99.90
31639;DHT22;18248;51.522;7.020;2023-02-04T14:47:18;10.70;99.90
31639;DHT22;18248;51.522;7.020;2023-02-04T14:50:16;10.80;99.90
31639;DHT22;18248;51.522;7.020;2023-02-04T14:53:15;10.70;99.90
31639;DHT22;18248;51.522;7.020;2023-02-04T14:56:13;10.70;99.90
31639;DHT22;18248;51.522;7.020;2023-02-04T14:59:12;10.70;99.90
31639;DHT22;18248;51.522;7.020;2023-02-04T15:02:11;10.70;99.90
31639;DHT22;18248;51.522;7.020;2023-02-04T15:05:12;10.70;99.90
31639;DHT22;18248;51.522;7.020;2023-02-04T15:08:12;10.60;99.90
31639;DHT22;18248;51.522;7.020;2023-02-04T15:11:11;10.60;99.90
31639;DHT22;18248;51.522;7.020;2023-02-04T15:14:09;10.60;99.90
31639;DHT22;18248;51.522;7.020;2023-02-04T15:17:08;10.60;99.90
31639;DHT22;18248;51.522;7.020;2023-02-04T15:20:07;10.60;99.90
31639;DHT22;18248;51.522;7.020;2023-02-04T15:23:06;10.60;99.90
31639;DHT22;18248;51.522;7.020;2023-02-04T15:26:04;10.60;99.90
31639;DHT22;18248;51.522;7.020;2023-02-04T15:29:04;10.60;99.90
31639;DHT22;18248;51.522;7.020;2023-02-04T15:32:03;10.60;99.90
31639;DHT22;18248;51.522;7.020;2023-02-04T15:35:02;10.60;99.90
31639;DHT22;18248;51.522;7.020;2023-02-04T15:38:00;10.60;99.90
31639;DHT22;18248;51.522;7.020;2023-02-04T15:40:59;10.50;99.90
31639;DHT22;18248;51.522;7.020;2023-02-04T15:43:57;10.50;99.90
31639;DHT22;18248;51.522;7.020;2023-02-04T15:46:57;10.50;99.90
31639;DHT22;18248;51.522;7.020;2023-02-04T15:49:56;10.40;99.90
31639;DHT22;18248;51.522;7.020;2023-02-04T15:52:54;10.40;99.90
31639;DHT22;18248;51.522;7.020;2023-02-04T15:55:53;10.30;99.90
31639;DHT22;18248;51.522;7.020;2023-02-04T15:58:51;10.20;99.90
31639;DHT22;18248;51.522;7.020;2023-02-04T16:01:50;10.20;99.90
31639;DHT22;18248;51.522;7.020;2023-02-04T16:04:48;10.10;99.90
31639;DHT22;18248;51.522;7.020;2023-02-04T16:07:47;10.00;99.90
31639;DHT22;18248;51.522;7.020;2023-02-04T16:10:46;10.00;99.90
31639;DHT22;18248;51.522;7.020;2023-02-04T16:13:45;9.90;99.90
31639;DHT22;18248;51.522;7.020;2023-02-04T16:16:44;9.80;99.90
31639;DHT22;18248;51.522;7.020;2023-02-04T16:19:42;9.70;99.90
31639;DHT22;18248;51.522;7.020;2023-02-04T16:22:41;9.60;99.90
31639;DHT22;18248;51.522;7.020;2023-02-04T16:25:39;9.60;99.90
31639;DHT22;18248;51.522;7.020;2023-02-04T16:28:38;9.50;99.90
31639;DHT22;18248;51.522;7.020;2023-02-04T16:31:36;9.40;99.90
31639;DHT22;18248;51.522;7.020;2023-02-04T16:34:35;9.30;99.90
31639;DHT22;18248;51.522;7.020;2023-02-04T16:37:34;9.20;99.90
31639;DHT22;18248;51.522;7.020;2023-02-04T16:40:34;9.10;99.90
31639;DHT22;18248;51.522;7.020;2023-02-04T16:43:33;8.90;99.90
31639;DHT22;18248;51.522;7.020;2023-02-04T16:46:31;8.80;99.90
31639;DHT22;18248;51.522;7.020;2023-02-04T16:49:31;8.70;99.90
31639;DHT22;18248;51.522;7.020;2023-02-04T16:52:30;8.60;99.90
31639;DHT22;18248;51.522;7.020;2023-02-04T16:55:29;8.60;99.90
31639;DHT22;18248;51.522;7.020;2023-02-04T16:58:28;8.50;99.90
31639;DHT22;18248;51.522;7.020;2023-02-04T17:01:26;8.40;99.90
31639;DHT22;18248;51.522;7.020;2023-02-04T17:04:26;8.40;99.90
31639;DHT22;18248;51.522;7.020;2023-02-04T17:07:24;8.30;99.90
31639;DHT22;18248;51.522;7.020;2023-02-04T17:10:24;8.20;99.90
31639;DHT22;18248;51.522;7.020;2023-02-04T17:13:41;8.10;99.90
31639;DHT22;18248;51.522;7.020;2023-02-04T17:16:43;8.00;99.90
31639;DHT22;18248;51.522;7.020;2023-02-04T17:19:42;8.00;99.90
31639;DHT22;18248;51.522;7.020;2023-02-04T17:22:41;7.90;99.90
31639;DHT22;18248;51.522;7.020;2023-02-04T17:25:39;7.90;99.90
31639;DHT22;18248;51.522;7.020;2023-02-04T17:28:38;7.80;99.90
31639;DHT22;18248;51.522;7.020;2023-02-04T17:31:37;7.70;99.90
31639;DHT22;18248;51.522;7.020;2023-02-04T17:34:37;7.70;99.90
31639;DHT22;18248;51.522;7.020;2023-02-04T17:37:35;7.60;99.90
31639;DHT22;18248;51.522;7.020;2023-02-04T17:40:34;7.60;99.90
31639;DHT22;18248;51.522;7.020;2023-02-04T17:43:32;7.50;99.90
31639;DHT22;18248;51.522;7.020;2023-02-04T17:46:31;7.50;99.90
31639;DHT22;18248;51.522;7.020;2023-02-04T17:49:31;7.40;99.90
31639;DHT22;18248;51.522;7.020;2023-02-04T17:52:29;7.40;99.90
31639;DHT22;18248;51.522;7.020;2023-02-04T17:55:32;7.30;99.90
31639;DHT22;18248;51.522;7.020;2023-02-04T17:58:31;7.30;99.90
31639;DHT22;18248;51.522;7.020;2023-02-04T18:01:29;7.20;99.90
31639;DHT22;18248;51.522;7.020;2023-02-04T18:04:28;7.20;99.90
31639;DHT22;18248;51.522;7.020;2023-02-04T18:07:26;7.20;99.90
31639;DHT22;18248;51.522;7.020;2023-02-04T18:10:31;7.20;99.90
31639;DHT22;18248;51.522;7.020;2023-02-04T18:13:32;7.30;99.90
31639;DHT22;18248;51.522;7.020;2023-02-04T18:16:32;7.30;99.90
31639;DHT22;18248;51.522;7.020;2023-02-04T18:19:32;7.30;99.90
31639;DHT22;18248;51.522;7.020;2023-02-04T18:22:34;7.30;99.90
31639;DHT22;18248;51.522;7.020;2023-02-04T18:25:32;7.30;99.90
31639;DHT22;18248;51.522;7.020;2023-02-04T18:28:33;7.30;99.90
31639;DHT22;18248;51.522;7.020;2023-02-04T18:31:42;7.20;99.90
31639;DHT22;18248;51.522;7.020;2023-02-04T18:34:46;7.20;99.90
31639;DHT22;18248;51.522;7.020;2023-02-04T18:37:50;7.10;99.90
31639;DHT22;18248;51.522;7.020;2023-02-04T18:40:49;7.10;99.90
31639;DHT22;18248;51.522;7.020;2023-02-04T18:43:52;7.00;99.90
31639;DHT22;18248;51.522;7.020;2023-02-04T18:46:58;7.00;99.90
31639;DHT22;18248;51.522;7.020;2023-02-04T18:49:59;7.00;99.90
31639;DHT22;18248;51.522;7.020;2023-02-04T18:56:13;7.00;99.90
31639;DHT22;18248;51.522;7.020;2023-02-04T18:59:15;7.00;99.90
31639;DHT22;18248;51.522;7.020;2023-02-04T19:05:36;7.00;99.90
31639;DHT22;18248;51.522;7.020;2023-02-04T19:08:43;7.00;99.90
31639;DHT22;18248;51.522;7.020;2023-02-04T19:11:45;6.90;99.90
31639;DHT22;18248;51.522;7.020;2023-02-04T19:14:44;7.00;99.90
31639;DHT22;18248;51.522;7.020;2023-02-04T19:17:44;7.00;99.90